Corvallis, Montana
Current Conditions -  °F | °C
As of 4:02 PM on Wednesday 26 Nov 2014 (Local Time) from KMSO Reporting Station
Haze Haze  
Wind Chill: 33°   Ceiling: 4500
Heat Index: 33°   Visibility: 4mi
Dew Point: 33°   Wind: 0mph
Humidity: 100%   Direction: NA
Pressure: 30.17"   Gusts: NA
Location:  46.31°N, 114.11°W
Report Text: KMSO 262302Z 00000KT 4SM BR OVC045 01/01 A3017 RMK AO2 T00060006
Loading
Personal Weather Stations






























Interactive Weather Map New forecast layout! Learn more

10-Day Weather Forecast

Advertisements
Track Severe Weather on mobile